sensor_id;sensor_type;location;lat;lon;timestamp;pressure;altitude;pressure_sealevel;temperature;humidity
74621;BME280;64861;47.546;19.254;2023-02-28T00:00:04;100220.06;;;21.04;45.88
74621;BME280;64861;47.546;19.254;2023-02-28T00:02:37;100224.81;;;21.10;45.86
74621;BME280;64861;47.546;19.254;2023-02-28T00:05:04;100231.41;;;21.06;45.90
74621;BME280;64861;47.546;19.254;2023-02-28T00:07:30;100228.03;;;21.04;46.04
74621;BME280;64861;47.546;19.254;2023-02-28T00:09:56;100219.91;;;21.05;45.95
74621;BME280;64861;47.546;19.254;2023-02-28T00:12:22;100226.09;;;21.06;45.80
74621;BME280;64861;47.546;19.254;2023-02-28T00:14:48;100234.72;;;21.08;46.12
74621;BME280;64861;47.546;19.254;2023-02-28T00:17:14;100241.44;;;21.02;45.95
74621;BME280;64861;47.546;19.254;2023-02-28T00:19:39;100242.72;;;20.98;45.91
74621;BME280;64861;47.546;19.254;2023-02-28T00:22:07;100245.94;;;21.02;45.91
74621;BME280;64861;47.546;19.254;2023-02-28T00:24:33;100232.63;;;21.02;45.71
74621;BME280;64861;47.546;19.254;2023-02-28T00:26:59;100245.34;;;21.08;45.60
74621;BME280;64861;47.546;19.254;2023-02-28T00:29:24;100247.47;;;21.04;45.83
74621;BME280;64861;47.546;19.254;2023-02-28T00:31:50;100244.97;;;21.03;45.96
74621;BME280;64861;47.546;19.254;2023-02-28T00:34:15;100244.97;;;21.03;45.87
74621;BME280;64861;47.546;19.254;2023-02-28T00:36:41;100244.97;;;21.03;45.88
74621;BME280;64861;47.546;19.254;2023-02-28T00:39:11;100250.69;;;20.98;45.97
74621;BME280;64861;47.546;19.254;2023-02-28T00:41:36;100246.22;;;20.99;45.87
74621;BME280;64861;47.546;19.254;2023-02-28T00:44:02;100255.16;;;20.98;45.87
74621;BME280;64861;47.546;19.254;2023-02-28T00:46:27;100250.41;;;21.01;45.88
74621;BME280;64861;47.546;19.254;2023-02-28T00:48:53;100253.34;;;20.98;45.91
74621;BME280;64861;47.546;19.254;2023-02-28T00:51:19;100254.72;;;21.02;45.83
74621;BME280;64861;47.546;19.254;2023-02-28T00:53:44;100258.09;;;21.04;45.64
74621;BME280;64861;47.546;19.254;2023-02-28T00:56:10;100257.09;;;21.05;45.54
74621;BME280;64861;47.546;19.254;2023-02-28T00:58:35;100248.88;;;20.99;45.82
74621;BME280;64861;47.546;19.254;2023-02-28T01:01:01;100251.41;;;21.00;45.74
74621;BME280;64861;47.546;19.254;2023-02-28T01:03:27;100255.31;;;20.96;45.92
74621;BME280;64861;47.546;19.254;2023-02-28T01:05:52;100258.53;;;21.00;45.85
74621;BME280;64861;47.546;19.254;2023-02-28T01:08:18;100258.38;;;21.01;45.57
74621;BME280;64861;47.546;19.254;2023-02-28T01:10:47;100259.09;;;21.03;45.64
74621;BME280;64861;47.546;19.254;2023-02-28T01:13:13;100260.91;;;21.03;45.55
74621;BME280;64861;47.546;19.254;2023-02-28T01:15:43;100256.28;;;20.95;45.64
74621;BME280;64861;47.546;19.254;2023-02-28T01:18:10;100255.16;;;20.98;45.60
74621;BME280;64861;47.546;19.254;2023-02-28T01:20:37;100256.00;;;20.98;45.72
74621;BME280;64861;47.546;19.254;2023-02-28T01:23:03;100261.19;;;21.00;45.76
74621;BME280;64861;47.546;19.254;2023-02-28T01:25:28;100258.66;;;20.98;45.58
74621;BME280;64861;47.546;19.254;2023-02-28T01:27:54;100261.19;;;21.00;45.66
74621;BME280;64861;47.546;19.254;2023-02-28T01:30:19;100262.59;;;20.94;45.75
74621;BME280;64861;47.546;19.254;2023-02-28T01:32:45;100255.31;;;20.96;45.53
74621;BME280;64861;47.546;19.254;2023-02-28T01:35:10;100250.41;;;21.01;45.43
74621;BME280;64861;47.546;19.254;2023-02-28T01:37:36;100256.84;;;20.99;45.37
74621;BME280;64861;47.546;19.254;2023-02-28T01:40:02;100261.03;;;21.01;45.50
74621;BME280;64861;47.546;19.254;2023-02-28T01:42:27;100264.97;;;20.97;45.57
74621;BME280;64861;47.546;19.254;2023-02-28T01:47:51;100260.75;;;20.95;45.49
74621;BME280;64861;47.546;19.254;2023-02-28T01:50:23;100266.63;;;20.98;45.47
74621;BME280;64861;47.546;19.254;2023-02-28T01:52:50;100258.09;;;20.95;45.49
74621;BME280;64861;47.546;19.254;2023-02-28T01:55:18;100248.88;;;20.89;45.28
74621;BME280;64861;47.546;19.254;2023-02-28T01:57:48;100256.56;;;20.92;45.51
74621;BME280;64861;47.546;19.254;2023-02-28T02:00:17;100259.22;;;20.92;45.61
74621;BME280;64861;47.546;19.254;2023-02-28T02:02:48;100258.09;;;20.95;45.36
74621;BME280;64861;47.546;19.254;2023-02-28T02:05:18;100260.47;;;20.98;45.38
74621;BME280;64861;47.546;19.254;2023-02-28T02:07:46;100254.63;;;20.94;45.40
74621;BME280;64861;47.546;19.254;2023-02-28T02:10:21;100259.66;;;20.97;45.34
74621;BME280;64861;47.546;19.254;2023-02-28T02:15:32;100253.63;;;20.95;45.14
74621;BME280;64861;47.546;19.254;2023-02-28T02:18:07;100255.88;;;21.00;45.21
74621;BME280;64861;47.546;19.254;2023-02-28T02:20:43;100261.47;;;20.97;45.14
74621;BME280;64861;47.546;19.254;2023-02-28T02:39:53;100247.63;;;20.93;44.95
74621;BME280;64861;47.546;19.254;2023-02-28T02:42:44;100243.00;;;20.95;44.92
74621;BME280;64861;47.546;19.254;2023-02-28T02:45:32;100248.31;;;20.95;44.95
74621;BME280;64861;47.546;19.254;2023-02-28T02:48:05;100252.78;;;20.95;45.01
74621;BME280;64861;47.546;19.254;2023-02-28T02:50:37;100251.53;;;20.89;44.89
74621;BME280;64861;47.546;19.254;2023-02-28T02:53:05;100245.94;;;20.92;44.96
74621;BME280;64861;47.546;19.254;2023-02-28T02:55:34;100256.28;;;20.95;44.91
74621;BME280;64861;47.546;19.254;2023-02-28T02:58:04;100250.13;;;20.95;44.64
74621;BME280;64861;47.546;19.254;2023-02-28T03:00:46;100251.53;;;20.89;44.86
74621;BME280;64861;47.546;19.254;2023-02-28T03:03:15;100240.22;;;20.87;44.81
74621;BME280;64861;47.546;19.254;2023-02-28T03:05:48;100253.78;;;20.94;44.69
74621;BME280;64861;47.546;19.254;2023-02-28T03:08:14;100246.09;;;20.91;44.81
74621;BME280;64861;47.546;19.254;2023-02-28T03:10:45;100251.41;;;20.91;44.53
74621;BME280;64861;47.546;19.254;2023-02-28T03:18:42;100252.38;;;20.90;44.55
74621;BME280;64861;47.546;19.254;2023-02-28T03:21:21;100258.53;;;20.90;44.61
74621;BME280;64861;47.546;19.254;2023-02-28T03:24:11;100256.16;;;20.87;44.72
74621;BME280;64861;47.546;19.254;2023-02-28T03:26:42;100264.13;;;20.87;44.68
74621;BME280;64861;47.546;19.254;2023-02-28T03:29:37;100263.69;;;20.82;44.60
74621;BME280;64861;47.546;19.254;2023-02-28T03:34:54;100267.91;;;20.84;44.55
74621;BME280;64861;47.546;19.254;2023-02-28T03:37:25;100263.84;;;20.90;44.45
74621;BME280;64861;47.546;19.254;2023-02-28T03:40:06;100266.22;;;20.93;44.49
74621;BME280;64861;47.546;19.254;2023-02-28T03:42:36;100262.16;;;20.89;44.20
74621;BME280;64861;47.546;19.254;2023-02-28T03:45:11;100258.09;;;20.85;44.43
74621;BME280;64861;47.546;19.254;2023-02-28T03:47:41;100257.81;;;20.88;44.54
74621;BME280;64861;47.546;19.254;2023-02-28T03:50:23;100264.69;;;20.91;44.15
74621;BME280;64861;47.546;19.254;2023-02-28T03:53:01;100259.50;;;20.89;44.09
74621;BME280;64861;47.546;19.254;2023-02-28T03:55:34;100253.78;;;20.84;44.56
74621;BME280;64861;47.546;19.254;2023-02-28T04:00:48;100259.09;;;20.84;44.22
74621;BME280;64861;47.546;19.254;2023-02-28T04:03:15;100261.59;;;20.85;44.38
74621;BME280;64861;47.546;19.254;2023-02-28T04:05:48;100256.56;;;20.82;44.08
74621;BME280;64861;47.546;19.254;2023-02-28T04:08:15;100259.09;;;20.84;44.32
74621;BME280;64861;47.546;19.254;2023-02-28T04:10:41;100259.09;;;20.84;44.20
74621;BME280;64861;47.546;19.254;2023-02-28T04:13:08;100249.03;;;20.87;44.19
74621;BME280;64861;47.546;19.254;2023-02-28T04:15:34;100257.81;;;20.88;44.25
74621;BME280;64861;47.546;19.254;2023-02-28T04:17:59;100256.84;;;20.89;43.94
74621;BME280;64861;47.546;19.254;2023-02-28T04:20:25;100244.41;;;20.90;44.10
74621;BME280;64861;47.546;19.254;2023-02-28T04:22:50;100247.47;;;20.85;44.01
74621;BME280;64861;47.546;19.254;2023-02-28T04:25:16;100252.25;;;20.81;44.22
74621;BME280;64861;47.546;19.254;2023-02-28T04:27:41;100249.47;;;20.83;44.04
74621;BME280;64861;47.546;19.254;2023-02-28T04:30:10;100245.81;;;20.84;44.19
74621;BME280;64861;47.546;19.254;2023-02-28T04:32:36;100241.47;;;20.83;44.17
74621;BME280;64861;47.546;19.254;2023-02-28T04:35:01;100240.50;;;20.84;44.07
74621;BME280;64861;47.546;19.254;2023-02-28T04:37:27;100244.81;;;20.85;43.98
74621;BME280;64861;47.546;19.254;2023-02-28T04:39:54;100249.47;;;20.83;44.11
74621;BME280;64861;47.546;19.254;2023-02-28T04:42:19;100247.47;;;20.85;43.81
74621;BME280;64861;47.546;19.254;2023-02-28T04:44:45;100245.94;;;20.82;43.96
74621;BME280;64861;47.546;19.254;2023-02-28T04:47:12;100245.81;;;20.84;43.90
74621;BME280;64861;47.546;19.254;2023-02-28T04:49:37;100247.75;;;20.82;44.01
74621;BME280;64861;47.546;19.254;2023-02-28T04:52:03;100242.72;;;20.79;44.09
74621;BME280;64861;47.546;19.254;2023-02-28T04:54:29;100246.22;;;20.79;44.19
74621;BME280;64861;47.546;19.254;2023-02-28T04:56:55;100239.94;;;20.80;43.79
74621;BME280;64861;47.546;19.254;2023-02-28T04:59:20;100244.16;;;20.83;44.02
74621;BME280;64861;47.546;19.254;2023-02-28T05:01:47;100244.00;;;20.84;43.82
74621;BME280;64861;47.546;19.254;2023-02-28T05:04:13;100238.94;;;20.81;43.88
74621;BME280;64861;47.546;19.254;2023-02-28T05:06:39;100245.09;;;20.82;43.83
74621;BME280;64861;47.546;19.254;2023-02-28T05:09:04;100239.66;;;20.83;44.00
74621;BME280;64861;47.546;19.254;2023-02-28T05:11:32;100239.38;;;20.77;43.97
74621;BME280;64861;47.546;19.254;2023-02-28T05:14:26;100245.66;;;20.85;43.81
74621;BME280;64861;47.546;19.254;2023-02-28T05:16:51;100245.09;;;20.82;43.84
74621;BME280;64861;47.546;19.254;2023-02-28T05:19:17;100245.25;;;20.80;43.75
74621;BME280;64861;47.546;19.254;2023-02-28T05:21:53;100254.78;;;20.83;43.83
74621;BME280;64861;47.546;19.254;2023-02-28T05:24:20;100254.63;;;20.84;43.68
74621;BME280;64861;47.546;19.254;2023-02-28T05:26:48;100261.88;;;20.82;43.60
74621;BME280;64861;47.546;19.254;2023-02-28T05:29:15;100249.75;;;20.80;43.71
74621;BME280;64861;47.546;19.254;2023-02-28T05:31:40;100251.25;;;20.82;43.65
74621;BME280;64861;47.546;19.254;2023-02-28T05:34:06;100254.19;;;20.79;43.85
74621;BME280;64861;47.546;19.254;2023-02-28T05:36:32;100261.03;;;20.82;43.55
74621;BME280;64861;47.546;19.254;2023-02-28T05:38:57;100254.63;;;20.84;43.60
74621;BME280;64861;47.546;19.254;2023-02-28T05:41:23;100258.25;;;20.83;43.63
74621;BME280;64861;47.546;19.254;2023-02-28T05:43:48;100262.88;;;20.81;43.54
74621;BME280;64861;47.546;19.254;2023-02-28T05:46:14;100270.13;;;20.79;43.73
74621;BME280;64861;47.546;19.254;2023-02-28T05:48:41;100266.63;;;20.79;43.62
74621;BME280;64861;47.546;19.254;2023-02-28T05:51:08;100262.88;;;20.81;43.52
74621;BME280;64861;47.546;19.254;2023-02-28T05:53:34;100263.97;;;20.79;43.42
74621;BME280;64861;47.546;19.254;2023-02-28T05:56:00;100265.25;;;20.84;43.72
74621;BME280;64861;47.546;19.254;2023-02-28T05:58:26;100270.41;;;20.86;43.42
74621;BME280;64861;47.546;19.254;2023-02-28T06:00:58;100276.69;;;20.85;43.47
74621;BME280;64861;47.546;19.254;2023-02-28T06:03:24;100280.63;;;20.81;43.41
74621;BME280;64861;47.546;19.254;2023-02-28T06:05:50;100279.63;;;20.82;43.31
74621;BME280;64861;47.546;19.254;2023-02-28T06:08:15;100285.94;;;20.81;43.09
74621;BME280;64861;47.546;19.254;2023-02-28T06:10:41;100281.47;;;20.81;43.23
74621;BME280;64861;47.546;19.254;2023-02-28T06:13:06;100283.00;;;20.84;43.22
74621;BME280;64861;47.546;19.254;2023-02-28T06:15:32;100285.94;;;20.81;43.12
74621;BME280;64861;47.546;19.254;2023-02-28T06:17:58;100290.97;;;20.84;42.68
74621;BME280;64861;47.546;19.254;2023-02-28T06:20:26;100285.38;;;20.87;43.03
74621;BME280;64861;47.546;19.254;2023-02-28T06:22:55;100292.66;;;20.85;42.83
74621;BME280;64861;47.546;19.254;2023-02-28T06:25:21;100294.31;;;20.86;43.16
74621;BME280;64861;47.546;19.254;2023-02-28T06:27:47;100295.47;;;20.83;43.43
74621;BME280;64861;47.546;19.254;2023-02-28T06:30:13;100298.78;;;20.85;43.12
74621;BME280;64861;47.546;19.254;2023-02-28T06:32:39;100298.78;;;20.85;43.38
74621;BME280;64861;47.546;19.254;2023-02-28T06:35:05;100300.91;;;20.92;43.09
74621;BME280;64861;47.546;19.254;2023-02-28T06:37:31;100303.72;;;20.90;43.13
74621;BME280;64861;47.546;19.254;2023-02-28T06:39:57;100307.75;;;20.94;42.79
74621;BME280;64861;47.546;19.254;2023-02-28T06:42:23;100305.66;;;20.88;43.21
74621;BME280;64861;47.546;19.254;2023-02-28T06:44:57;100300.34;;;20.88;43.24
74621;BME280;64861;47.546;19.254;2023-02-28T06:47:23;100292.81;;;20.93;42.80
74621;BME280;64861;47.546;19.254;2023-02-28T06:49:49;100298.53;;;20.98;42.93
74621;BME280;64861;47.546;19.254;2023-02-28T06:52:14;100297.41;;;21.01;43.10
74621;BME280;64861;47.546;19.254;2023-02-28T06:54:40;100294.75;;;21.01;43.14
74621;BME280;64861;47.546;19.254;2023-02-28T06:57:06;100297.84;;;21.06;43.25
74621;BME280;64861;47.546;19.254;2023-02-28T06:59:31;100304.81;;;21.07;43.25
74621;BME280;64861;47.546;19.254;2023-02-28T07:01:57;100296.41;;;21.11;43.23
74621;BME280;64861;47.546;19.254;2023-02-28T07:04:23;100300.34;;;21.17;42.84
74621;BME280;64861;47.546;19.254;2023-02-28T07:06:48;100306.94;;;20.94;41.79
74621;BME280;64861;47.546;19.254;2023-02-28T07:09:14;100307.88;;;21.02;42.19
74621;BME280;64861;47.546;19.254;2023-02-28T07:11:40;100319.22;;;21.04;42.43
74621;BME280;64861;47.546;19.254;2023-02-28T07:14:08;100319.38;;;21.13;42.82
74621;BME280;64861;47.546;19.254;2023-02-28T07:16:33;100316.41;;;21.16;42.78
74621;BME280;64861;47.546;19.254;2023-02-28T07:18:59;100320.34;;;21.11;42.89
74621;BME280;64861;47.546;19.254;2023-02-28T07:21:24;100317.69;;;21.11;42.92
74621;BME280;64861;47.546;19.254;2023-02-28T07:23:50;100319.38;;;21.13;42.81
74621;BME280;64861;47.546;19.254;2023-02-28T07:26:18;100320.22;;;21.13;42.88
74621;BME280;64861;47.546;19.254;2023-02-28T07:28:46;100324.09;;;21.09;42.96
74621;BME280;64861;47.546;19.254;2023-02-28T07:31:12;100331.81;;;21.12;43.04
74621;BME280;64861;47.546;19.254;2023-02-28T07:33:39;100328.75;;;21.17;42.98
74621;BME280;64861;47.546;19.254;2023-02-28T07:36:11;100333.22;;;21.16;43.03
74621;BME280;64861;47.546;19.254;2023-02-28T07:38:41;100334.06;;;21.17;42.95
74621;BME280;64861;47.546;19.254;2023-02-28T07:41:16;100336.72;;;21.17;42.91
74621;BME280;64861;47.546;19.254;2023-02-28T07:43:42;100336.72;;;21.17;42.99
74621;BME280;64861;47.546;19.254;2023-02-28T07:46:10;100336.72;;;21.17;43.04
74621;BME280;64861;47.546;19.254;2023-02-28T07:48:36;100337.84;;;21.24;42.85
74621;BME280;64861;47.546;19.254;2023-02-28T07:51:02;100320.91;;;21.15;42.51
74621;BME280;64861;47.546;19.254;2023-02-28T07:53:28;100327.59;;;21.29;42.50
74621;BME280;64861;47.546;19.254;2023-02-28T07:55:55;100329.41;;;21.28;42.57
74621;BME280;64861;47.546;19.254;2023-02-28T07:58:21;100331.66;;;21.33;42.41
74621;BME280;64861;47.546;19.254;2023-02-28T08:00:46;100337.00;;;21.33;42.72
74621;BME280;64861;47.546;19.254;2023-02-28T08:03:12;100335.88;;;21.35;42.78
74621;BME280;64861;47.546;19.254;2023-02-28T08:05:41;100339.25;;;21.38;42.91
74621;BME280;64861;47.546;19.254;2023-02-28T08:08:07;100334.91;;;21.37;42.83
74621;BME280;64861;47.546;19.254;2023-02-28T08:10:33;100341.78;;;21.39;42.91
74621;BME280;64861;47.546;19.254;2023-02-28T08:12:59;100342.47;;;21.41;42.78
74621;BME280;64861;47.546;19.254;2023-02-28T08:15:25;100333.38;;;21.44;42.51
74621;BME280;64861;47.546;19.254;2023-02-28T08:17:51;100342.88;;;21.46;42.58
74621;BME280;64861;47.546;19.254;2023-02-28T08:20:16;100336.28;;;21.50;42.58
74621;BME280;64861;47.546;19.254;2023-02-28T08:22:42;100344.13;;;21.52;42.73
74621;BME280;64861;47.546;19.254;2023-02-28T08:25:08;100343.25;;;21.61;42.34
74621;BME280;64861;47.546;19.254;2023-02-28T08:27:35;100347.59;;;21.62;42.50
74621;BME280;64861;47.546;19.254;2023-02-28T08:30:00;100342.84;;;21.66;42.62
74621;BME280;64861;47.546;19.254;2023-02-28T08:32:26;100345.34;;;21.77;42.50
74621;BME280;64861;47.546;19.254;2023-02-28T08:34:51;100340.72;;;21.79;42.38
74621;BME280;64861;47.546;19.254;2023-02-28T08:37:17;100334.41;;;21.80;42.39
74621;BME280;64861;47.546;19.254;2023-02-28T08:39:42;100335.66;;;21.86;42.17
74621;BME280;64861;47.546;19.254;2023-02-28T08:42:08;100339.25;;;21.94;41.95
74621;BME280;64861;47.546;19.254;2023-02-28T08:44:33;100334.19;;;22.01;41.93
74621;BME280;64861;47.546;19.254;2023-02-28T08:46:59;100343.25;;;22.08;42.07
74621;BME280;64861;47.546;19.254;2023-02-28T08:49:24;100336.41;;;22.05;41.79
74621;BME280;64861;47.546;19.254;2023-02-28T08:51:50;100342.41;;;22.17;41.60
74621;BME280;64861;47.546;19.254;2023-02-28T08:54:16;100338.09;;;22.16;41.55
74621;BME280;64861;47.546;19.254;2023-02-28T08:56:45;100334.13;;;22.20;41.71
74621;BME280;64861;47.546;19.254;2023-02-28T08:59:12;100334.84;;;22.22;41.45
74621;BME280;64861;47.546;19.254;2023-02-28T09:01:38;100331.00;;;22.25;41.06
74621;BME280;64861;47.546;19.254;2023-02-28T09:04:04;100324.72;;;22.26;41.04
74621;BME280;64861;47.546;19.254;2023-02-28T09:06:32;100337.25;;;22.16;41.48
74621;BME280;64861;47.546;19.254;2023-02-28T09:08:58;100336.16;;;21.99;41.88
74621;BME280;64861;47.546;19.254;2023-02-28T09:11:29;100329.69;;;22.01;41.88
74621;BME280;64861;47.546;19.254;2023-02-28T09:13:55;100332.97;;;21.95;42.10
74621;BME280;64861;47.546;19.254;2023-02-28T09:16:21;100329.97;;;21.98;41.84
74621;BME280;64861;47.546;19.254;2023-02-28T09:18:50;100332.22;;;22.03;41.93
74621;BME280;64861;47.546;19.254;2023-02-28T09:21:17;100338.56;;;21.92;42.21
74621;BME280;64861;47.546;19.254;2023-02-28T09:23:47;100340.69;;;21.89;42.10
74621;BME280;64861;47.546;19.254;2023-02-28T09:26:23;100347.41;;;21.83;42.35
74621;BME280;64861;47.546;19.254;2023-02-28T09:28:50;100345.34;;;21.77;42.36
74621;BME280;64861;47.546;19.254;2023-02-28T09:31:20;100346.59;;;21.73;42.37
74621;BME280;64861;47.546;19.254;2023-02-28T09:33:51;100347.56;;;21.72;42.18
74621;BME280;64861;47.546;19.254;2023-02-28T09:36:17;100355.28;;;21.75;42.27
74621;BME280;64861;47.546;19.254;2023-02-28T09:38:43;100353.13;;;21.88;41.69
74621;BME280;64861;47.546;19.254;2023-02-28T09:41:15;100350.59;;;21.96;41.81
74621;BME280;64861;47.546;19.254;2023-02-28T09:43:45;100350.31;;;21.99;41.77
74621;BME280;64861;47.546;19.254;2023-02-28T09:48:50;100347.59;;;22.46;40.46
74621;BME280;64861;47.546;19.254;2023-02-28T09:51:32;100341.28;;;22.47;40.64
74621;BME280;64861;47.546;19.254;2023-02-28T09:53:58;100344.78;;;22.48;40.59
74621;BME280;64861;47.546;19.254;2023-02-28T09:56:30;100346.59;;;22.47;40.46
74621;BME280;64861;47.546;19.254;2023-02-28T10:04:18;100337.59;;;22.76;40.03
74621;BME280;64861;47.546;19.254;2023-02-28T10:06:51;100331.91;;;22.89;39.78
74621;BME280;64861;47.546;19.254;2023-02-28T10:09:32;100334.81;;;23.13;39.21
74621;BME280;64861;47.546;19.254;2023-02-28T10:12:04;100325.81;;;22.96;39.41
74621;BME280;64861;47.546;19.254;2023-02-28T10:14:33;100327.25;;;22.73;40.03
74621;BME280;64861;47.546;19.254;2023-02-28T10:17:12;100326.47;;;22.81;39.37
74621;BME280;64861;47.546;19.254;2023-02-28T10:19:44;100322.47;;;22.94;39.43
74621;BME280;64861;47.546;19.254;2023-02-28T10:22:19;100322.59;;;23.29;39.06
74621;BME280;64861;47.546;19.254;2023-02-28T10:24:53;100317.06;;;23.04;39.22
74621;BME280;64861;47.546;19.254;2023-02-28T10:27:21;100317.09;;;22.77;39.71
74621;BME280;64861;47.546;19.254;2023-02-28T10:29:55;100314.91;;;22.72;39.63
74621;BME280;64861;47.546;19.254;2023-02-28T10:32:24;100314.38;;;22.68;39.78
74621;BME280;64861;47.546;19.254;2023-02-28T10:37:37;100307.34;;;22.67;40.39
74621;BME280;64861;47.546;19.254;2023-02-28T10:40:05;100308.88;;;22.52;40.32
74621;BME280;64861;47.546;19.254;2023-02-28T10:42:31;100303.59;;;22.42;40.66
74621;BME280;64861;47.546;19.254;2023-02-28T10:45:15;100300.47;;;22.47;40.44
74621;BME280;64861;47.546;19.254;2023-02-28T10:48:00;100299.44;;;22.58;39.90
74621;BME280;64861;47.546;19.254;2023-02-28T10:50:46;100295.16;;;22.65;40.25
74621;BME280;64861;47.546;19.254;2023-02-28T10:56:23;100299.19;;;22.51;40.61
74621;BME280;64861;47.546;19.254;2023-02-28T11:01:45;100284.50;;;22.65;39.91
74621;BME280;64861;47.546;19.254;2023-02-28T11:06:44;100293.25;;;22.39;40.21
74621;BME280;64861;47.546;19.254;2023-02-28T11:09:28;100293.53;;;22.36;40.31
74621;BME280;64861;47.546;19.254;2023-02-28T11:11:56;100293.38;;;22.38;40.27
74621;BME280;64861;47.546;19.254;2023-02-28T11:14:25;100291.97;;;22.43;40.27
74621;BME280;64861;47.546;19.254;2023-02-28T11:16:52;100290.47;;;22.31;40.81
74621;BME280;64861;47.546;19.254;2023-02-28T11:19:22;100290.88;;;22.36;40.62
74621;BME280;64861;47.546;19.254;2023-02-28T11:22:02;100286.16;;;22.48;40.33
74621;BME280;64861;47.546;19.254;2023-02-28T11:24:36;100291.06;;;22.52;39.81
74621;BME280;64861;47.546;19.254;2023-02-28T11:27:11;100281.47;;;22.60;39.99
74621;BME280;64861;47.546;19.254;2023-02-28T11:29:49;100282.59;;;22.57;39.96
74621;BME280;64861;47.546;19.254;2023-02-28T11:32:22;100280.03;;;22.65;40.25
74621;BME280;64861;47.546;19.254;2023-02-28T11:37:32;100280.50;;;22.79;39.79
74621;BME280;64861;47.546;19.254;2023-02-28T11:39:58;100279.56;;;22.52;40.66
74621;BME280;64861;47.546;19.254;2023-02-28T11:47:47;100276.09;;;22.24;41.22
74621;BME280;64861;47.546;19.254;2023-02-28T11:50:16;100278.47;;;21.52;30.38
74621;BME280;64861;47.546;19.254;2023-02-28T11:52:56;100266.53;;;20.21;30.90
74621;BME280;64861;47.546;19.254;2023-02-28T12:03:56;100261.50;;;21.63;34.52
74621;BME280;64861;47.546;19.254;2023-02-28T12:06:29;100255.56;;;21.79;34.99
74621;BME280;64861;47.546;19.254;2023-02-28T12:12:07;100262.84;;;22.04;35.32
74621;BME280;64861;47.546;19.254;2023-02-28T12:14:54;100256.53;;;22.15;35.04
74621;BME280;64861;47.546;19.254;2023-02-28T12:20:37;100252.50;;;22.01;36.57
74621;BME280;64861;47.546;19.254;2023-02-28T12:34:46;100238.16;;;22.22;37.26
74621;BME280;64861;47.546;19.254;2023-02-28T12:37:40;100244.13;;;22.24;37.32
74621;BME280;64861;47.546;19.254;2023-02-28T12:40:21;100233.25;;;22.17;37.05
74621;BME280;64861;47.546;19.254;2023-02-28T12:42:52;100233.13;;;22.19;37.46
74621;BME280;64861;47.546;19.254;2023-02-28T12:45:23;100224.84;;;22.12;37.73
74621;BME280;64861;47.546;19.254;2023-02-28T12:48:00;100226.13;;;22.08;38.38
74621;BME280;64861;47.546;19.254;2023-02-28T12:50:27;100230.31;;;22.11;38.08
74621;BME280;64861;47.546;19.254;2023-02-28T12:58:44;100225.97;;;22.10;38.51
74621;BME280;64861;47.546;19.254;2023-02-28T13:06:56;100213.97;;;22.05;38.57
74621;BME280;64861;47.546;19.254;2023-02-28T13:09:25;100217.00;;;22.11;38.41
74621;BME280;64861;47.546;19.254;2023-02-28T13:11:54;100211.69;;;22.11;38.56
74621;BME280;64861;47.546;19.254;2023-02-28T13:17:20;100211.50;;;21.94;38.86
74621;BME280;64861;47.546;19.254;2023-02-28T13:19:59;100217.22;;;21.99;38.84
74621;BME280;64861;47.546;19.254;2023-02-28T13:24:57;100213.72;;;21.99;38.78
74621;BME280;64861;47.546;19.254;2023-02-28T13:27:39;100218.88;;;22.00;39.14
74621;BME280;64861;47.546;19.254;2023-02-28T13:33:22;100215.59;;;21.89;39.07
74621;BME280;64861;47.546;19.254;2023-02-28T13:36:06;100213.25;;;21.86;39.36
74621;BME280;64861;47.546;19.254;2023-02-28T13:38:35;100208.88;;;21.85;39.38
74621;BME280;64861;47.546;19.254;2023-02-28T13:41:45;100206.63;;;21.90;39.15
74621;BME280;64861;47.546;19.254;2023-02-28T13:44:22;100191.50;;;21.90;39.05
74621;BME280;64861;47.546;19.254;2023-02-28T13:51:55;100196.03;;;21.80;39.49
74621;BME280;64861;47.546;19.254;2023-02-28T13:54:53;100194.75;;;21.84;39.52
74621;BME280;64861;47.546;19.254;2023-02-28T13:57:44;100185.38;;;21.80;39.65
74621;BME280;64861;47.546;19.254;2023-02-28T14:05:32;100176.41;;;21.81;39.49
74621;BME280;64861;47.546;19.254;2023-02-28T14:08:04;100170.13;;;21.82;39.50
74621;BME280;64861;47.546;19.254;2023-02-28T14:10:36;100173.75;;;21.81;39.83
74621;BME280;64861;47.546;19.254;2023-02-28T14:13:12;100181.06;;;21.79;39.87
74621;BME280;64861;47.546;19.254;2023-02-28T14:20:42;100180.19;;;21.78;39.78
74621;BME280;64861;47.546;19.254;2023-02-28T14:32:15;100168.06;;;21.29;38.01
74621;BME280;64861;47.546;19.254;2023-02-28T14:37:38;100165.06;;;21.51;39.60
74621;BME280;64861;47.546;19.254;2023-02-28T14:40:13;100169.81;;;21.10;37.67
74621;BME280;64861;47.546;19.254;2023-02-28T14:42:46;100174.78;;;21.33;38.06
74621;BME280;64861;47.546;19.254;2023-02-28T14:45:22;100172.84;;;21.35;38.43
74621;BME280;64861;47.546;19.254;2023-02-28T14:47:50;100176.75;;;21.41;39.00
74621;BME280;64861;47.546;19.254;2023-02-28T14:50:32;100180.78;;;21.45;39.12
74621;BME280;64861;47.546;19.254;2023-02-28T14:52:59;100171.53;;;21.49;39.25
74621;BME280;64861;47.546;19.254;2023-02-28T14:55:30;100178.25;;;21.53;39.30
74621;BME280;64861;47.546;19.254;2023-02-28T14:58:02;100179.50;;;21.49;39.61
74621;BME280;64861;47.546;19.254;2023-02-28T15:00:47;100178.66;;;21.48;39.79
74621;BME280;64861;47.546;19.254;2023-02-28T15:05:58;100180.50;;;21.48;39.64
74621;BME280;64861;47.546;19.254;2023-02-28T15:08:25;100187.03;;;21.16;34.12